Terminal Aerodrome Forecast
Issued by NWS Cleveland, OH

Home | Current Version | Previous Version | Text Only | Print | Product List | Glossary Off
Versions: 1 2 3 4 5 6 7 8 9 10 11 12 13 14 15 16 17 18 19 20 21 22

008
FTUS41 KCLE 202338
TAFMFD
TAF
KMFD 202338Z 2100/2124 20009KT P6SM OVC035
      TEMPO 2102/2106 5SM BR OVC015
     FM210600 18006KT 3SM BR OVC015
      TEMPO 2110/2114 2SM BR OVC008
     FM211500 18008KT P6SM OVC025
     FM211800 19012KT P6SM BKN035=

USA.gov is the U.S. government's official web portal to all federal, state and local government web resources and services.